Sorento, Illinois
Current Conditions -  °F | °C
As of 6:35 AM on Monday 22 Dec 2014 (Local Time) from K3LF Reporting Station
Light Rain Light Rain  
Wind Chill: 28°   Ceiling: 3200
Heat Index: 36°   Visibility: 5mi
Dew Point: 33°   Wind: 10mph
Humidity: 90%   Direction: 120°ESE
Pressure: 29.82"   Gusts: NA
Location:  39°N, 89.57°W
Report Text: K3LF 221235Z AUTO 12009KT 5SM -RA BKN032 OVC048 02/01 A2982 RMK AO2 P0001 T00200005
Loading
Personal Weather Stations






























Interactive Weather Map New forecast layout! Learn more

10-Day Weather Forecast

Advertisements
Track Severe Weather on mobile